Time;durP1;ratioP1;P1;durP2;ratioP2;P2;SDS_P1;SDS_P2;PMS_P1;PMS_P2;Temp;Humidity;BMP_temperature;BMP_pressure;BME280_temperature;BME280_humidity;BME280_pressure;Samples;Min_cycle;Max_cycle;Signal;HPM_P1;HPM_P2
2023/02/08 00:00:55;;;;;;;10.27;5.53;;;;;;;-2.28;100.00;103759.78;6202667;28;20046;-76
2023/02/08 00:03:58;;;;;;;13.57;6.32;;;;;;;-2.26;100.00;103752.16;6201739;28;20330;-76
2023/02/08 00:06:59;;;;;;;20.13;4.63;;;;;;;-2.33;100.00;103751.84;6202539;28;20046;-76
2023/02/08 00:10:03;;;;;;;14.77;5.53;;;;;;;-2.31;100.00;103751.94;6202246;28;20377;-76
2023/02/08 00:13:05;;;;;;;14.40;5.45;;;;;;;-2.27;100.00;103755.50;6202372;28;20057;-76
2023/02/08 00:16:07;;;;;;;12.68;4.93;;;;;;;-2.28;100.00;103751.19;6202383;28;20051;-77
2023/02/08 00:19:10;;;;;;;12.55;4.43;;;;;;;-2.27;100.00;103753.84;6202112;28;20058;-76
2023/02/08 00:22:11;;;;;;;8.98;5.30;;;;;;;-2.38;100.00;103755.88;6202019;28;20345;-77
2023/02/08 00:25:12;;;;;;;9.38;4.95;;;;;;;-2.36;100.00;103756.88;6202464;28;20050;-77
2023/02/08 00:28:15;;;;;;;13.38;5.75;;;;;;;-2.35;100.00;103743.16;6202825;28;20054;-76
2023/02/08 00:31:17;;;;;;;10.45;5.25;;;;;;;-2.37;100.00;103739.63;6202765;28;20050;-81
2023/02/08 00:34:19;;;;;;;10.27;4.65;;;;;;;-2.40;100.00;103739.50;6225054;28;20506;-81
2023/02/08 00:37:21;;;;;;;12.68;5.20;;;;;;;-2.52;100.00;103736.31;6226608;28;20444;-81
2023/02/08 00:40:23;;;;;;;11.32;4.80;;;;;;;-2.51;100.00;103738.06;6225845;28;20404;-81
2023/02/08 00:43:24;;;;;;;11.15;4.82;;;;;;;-2.50;100.00;103728.66;6226125;28;20057;-81
2023/02/08 00:46:25;;;;;;;11.93;5.63;;;;;;;-2.49;100.00;103739.06;6226130;28;20141;-81
2023/02/08 00:53:53;;;;;;;10.10;5.30;;;;;;;-2.53;100.00;103746.56;6225894;28;20420;-81
2023/02/08 00:56:54;;;;;;;9.48;4.95;;;;;;;-2.59;100.00;103745.44;6218406;28;20366;-78
2023/02/08 00:59:55;;;;;;;12.27;4.63;;;;;;;-2.62;100.00;103731.53;6201273;28;20050;-80
2023/02/08 01:02:57;;;;;;;10.25;4.70;;;;;;;-2.60;100.00;103730.78;6201348;28;20054;-79
2023/02/08 01:06:00;;;;;;;11.10;5.70;;;;;;;-2.57;100.00;103727.50;6207687;28;20051;-80
2023/02/08 01:09:03;;;;;;;13.38;5.68;;;;;;;-2.60;100.00;103722.19;6200902;28;20061;-81
2023/02/08 01:12:05;;;;;;;11.50;5.10;;;;;;;-2.60;100.00;103720.50;6205193;28;20042;-79
2023/02/08 01:15:07;;;;;;;15.77;5.55;;;;;;;-2.64;100.00;103722.84;6225194;28;20058;-78
2023/02/08 01:18:09;;;;;;;14.13;4.45;;;;;;;-2.71;100.00;103713.06;6225400;28;20061;-80
2023/02/08 01:21:13;;;;;;;9.20;4.53;;;;;;;-2.68;100.00;103716.69;6225497;28;20046;-78
2023/02/08 01:24:17;;;;;;;10.27;5.97;;;;;;;-2.65;100.00;103719.38;6225481;28;20057;-78
2023/02/08 01:27:18;;;;;;;11.60;6.10;;;;;;;-2.67;100.00;103708.16;6225944;28;20049;-78
2023/02/08 01:30:20;;;;;;;7.57;5.20;;;;;;;-2.67;100.00;103708.16;6224905;28;20056;-78
2023/02/08 01:33:21;;;;;;;9.32;4.78;;;;;;;-2.62;100.00;103703.22;6223546;28;20053;-78
2023/02/08 01:36:23;;;;;;;10.57;4.85;;;;;;;-2.65;100.00;103703.94;6224708;28;20058;-78
2023/02/08 01:39:25;;;;;;;10.38;4.63;;;;;;;-2.65;100.00;103695.34;6225076;28;20061;-79
2023/02/08 01:42:27;;;;;;;21.58;6.22;;;;;;;-2.66;100.00;103693.59;6224788;28;20364;-78
2023/02/08 01:45:32;;;;;;;13.25;6.78;;;;;;;-2.78;100.00;103698.13;6225274;28;20057;-78
2023/02/08 01:48:37;;;;;;;16.77;6.65;;;;;;;-2.75;100.00;103700.84;6224671;28;20061;-78
2023/02/08 01:51:42;;;;;;;17.98;6.18;;;;;;;-2.78;100.00;103695.53;6225057;28;20065;-81
2023/02/08 01:54:50;;;;;;;12.98;6.25;;;;;;;-2.81;100.00;103691.16;6224984;28;20407;-78
2023/02/08 01:57:55;;;;;;;17.10;6.90;;;;;;;-2.81;100.00;103697.19;6223103;28;20057;-78
2023/02/08 02:00:56;;;;;;;13.45;5.85;;;;;;;-2.81;100.00;103696.28;6224689;28;20155;-78
2023/02/08 02:04:01;;;;;;;11.82;5.85;;;;;;;-2.82;100.00;103694.50;6224843;28;20053;-78
2023/02/08 02:07:04;;;;;;;13.32;5.63;;;;;;;-2.86;100.00;103690.94;6225029;28;20050;-78
2023/02/08 02:10:10;;;;;;;14.93;6.72;;;;;;;-2.85;100.00;103689.22;6224698;28;20060;-78
2023/02/08 02:13:16;;;;;;;8.90;5.13;;;;;;;-2.90;100.00;103693.28;6224453;28;20057;-78
2023/02/08 02:16:17;;;;;;;10.70;5.13;;;;;;;-2.87;100.00;103699.41;6224992;28;20050;-78
2023/02/08 02:19:27;;;;;;;15.32;6.80;;;;;;;-2.89;100.00;103710.47;6224431;28;20062;-77
2023/02/08 02:23:13;;;;;;;19.15;6.82;;;;;;;-2.99;100.00;103698.84;6224942;28;20042;-77
2023/02/08 02:26:46;;;;;;;10.80;4.95;;;;;;;-3.08;100.00;103704.41;6150594;28;20473;-78
2023/02/08 02:30:24;;;;;;;7.97;5.22;;;;;;;-2.99;100.00;103693.69;6164327;28;20052;-78
2023/02/08 02:33:45;;;;;;;12.07;6.25;;;;;;;-2.95;100.00;103698.19;6229113;28;20050;-77
2023/02/08 02:36:52;;;;;;;18.83;6.13;;;;;;;-2.97;100.00;103693.75;6228885;28;20455;-77
2023/02/08 02:40:02;;;;;;;11.45;5.40;;;;;;;-2.99;100.00;103703.09;6228876;28;20050;-77
2023/02/08 02:46:40;;;;;;;23.80;6.60;;;;;;;-3.03;100.00;103703.75;6228801;28;20089;-77
2023/02/08 02:49:50;;;;;;;20.95;6.10;;;;;;;-3.01;100.00;103712.41;6228809;28;20417;-77
2023/02/08 02:52:59;;;;;;;18.45;7.05;;;;;;;-2.99;100.00;103714.28;6228625;28;20388;-77
2023/02/08 02:56:05;;;;;;;15.10;6.10;;;;;;;-3.06;100.00;103719.91;6228877;28;20451;-77
2023/02/08 02:59:10;;;;;;;14.05;6.80;;;;;;;-3.06;100.00;103717.31;6226737;28;20043;-77
2023/02/08 03:02:12;;;;;;;18.55;7.40;;;;;;;-3.01;100.00;103717.56;6228658;28;20046;-77
2023/02/08 03:05:15;;;;;;;17.50;7.68;;;;;;;-3.03;100.00;103716.63;6228420;28;20053;-77
2023/02/08 03:08:30;;;;;;;19.98;7.50;;;;;;;-3.26;100.00;103707.72;6228155;28;20054;-77
2023/02/08 03:11:33;;;;;;;20.92;8.52;;;;;;;-3.24;100.00;103706.09;6228257;28;20271;-77
2023/02/08 03:14:47;;;;;;;14.63;7.80;;;;;;;-3.12;100.00;103711.88;6228099;28;20057;-77
2023/02/08 03:18:00;;;;;;;20.50;6.53;;;;;;;-3.09;100.00;103715.50;6227851;28;20058;-77
2023/02/08 03:21:09;;;;;;;12.68;6.57;;;;;;;-3.08;100.00;103704.41;6227867;28;20361;-77
2023/02/08 03:24:18;;;;;;;;;;;;;;;-3.09;100.00;103710.34;6228458;28;20651;-77
2023/02/08 03:27:23;;;;;;;;;;;;;;;-3.06;100.00;103717.31;6228921;28;19921;-77
2023/02/08 03:30:31;;;;;;;10.68;5.63;;;;;;;-3.01;100.00;103721.00;6218131;28;19922;-77
2023/02/08 03:33:38;;;;;;;16.88;7.18;;;;;;;-3.03;100.00;103720.06;6202982;28;20061;-77
2023/02/08 03:36:47;;;;;;;21.80;7.13;;;;;;;-3.17;100.00;103713.34;6226966;28;20117;-77
2023/02/08 03:39:51;;;;;;;13.18;6.72;;;;;;;-3.14;100.00;103716.06;6227377;28;20056;-77
2023/02/08 03:42:56;;;;;;;23.30;6.70;;;;;;;-3.15;100.00;103715.16;6227117;28;20058;-77
2023/02/08 03:46:03;;;;;;;23.13;8.27;;;;;;;-3.16;100.00;103713.41;6227198;28;20050;-77
2023/02/08 03:49:08;;;;;;;16.92;8.13;;;;;;;-3.18;100.00;103719.25;6227172;28;20050;-77
2023/02/08 03:52:11;;;;;;;16.15;8.88;;;;;;;-3.18;100.00;103729.56;6227345;28;20050;-77
2023/02/08 03:55:16;;;;;;;12.60;6.47;;;;;;;-3.20;100.00;103731.19;6227435;28;20042;-79
2023/02/08 03:58:22;;;;;;;17.52;6.63;;;;;;;-3.24;100.00;103734.38;6226772;28;20061;-76
2023/02/08 04:01:30;;;;;;;19.77;6.90;;;;;;;-3.24;100.00;103727.56;6226586;28;20144;-77
2023/02/08 04:04:35;;;;;;;19.80;7.45;;;;;;;-3.33;100.00;103734.78;6227220;28;20053;-77
2023/02/08 04:07:37;;;;;;;12.40;7.43;;;;;;;-3.37;100.00;103731.19;6227077;28;20054;-77
2023/02/08 04:10:39;;;;;;;15.65;8.02;;;;;;;-3.38;100.00;103736.25;6226769;28;20065;-76
2023/02/08 04:13:40;;;;;;;16.60;7.72;;;;;;;-3.43;100.00;103736.00;6226488;28;20057;-77
2023/02/08 04:16:42;;;;;;;15.95;7.68;;;;;;;-3.44;100.00;103733.38;6225286;28;20061;-77
2023/02/08 04:19:43;;;;;;;21.90;7.97;;;;;;;-3.54;100.00;103724.28;6226223;28;20506;-77
2023/02/08 04:22:46;;;;;;;19.05;9.55;;;;;;;-3.51;100.00;103726.13;6226776;28;20049;-77
2023/02/08 04:25:47;;;;;;;21.05;9.18;;;;;;;-3.42;100.00;103722.34;6226486;28;20459;-76
2023/02/08 04:28:48;;;;;;;17.13;8.73;;;;;;;-3.38;100.00;103721.72;6226361;28;20057;-77
2023/02/08 04:31:50;;;;;;;18.45;7.32;;;;;;;-3.33;100.00;103724.50;6226373;28;20054;-79
2023/02/08 04:34:51;;;;;;;19.88;8.68;;;;;;;-3.29;100.00;103731.59;6220202;28;20349;-77
2023/02/08 04:37:54;;;;;;;21.48;9.48;;;;;;;-3.38;100.00;103732.00;6201907;28;20058;-77
2023/02/08 04:40:55;;;;;;;22.92;8.13;;;;;;;-3.53;100.00;103728.63;6201956;28;20058;-77
2023/02/08 04:43:57;;;;;;;20.65;8.82;;;;;;;-3.53;100.00;103728.63;6201913;28;20057;-77
2023/02/08 04:46:58;;;;;;;18.02;8.90;;;;;;;-3.53;100.00;103725.19;6201527;28;20054;-77
2023/02/08 04:50:00;;;;;;;21.90;7.10;;;;;;;-3.55;100.00;103726.75;6211956;28;20057;-77
2023/02/08 04:53:03;;;;;;;25.73;7.75;;;;;;;-3.53;100.00;103733.75;6242572;28;20061;-76
2023/02/08 04:56:06;;;;;;;23.55;9.13;;;;;;;-3.55;100.00;103732.78;6238647;28;20041;-77
2023/02/08 04:59:07;;;;;;;14.23;7.43;;;;;;;-3.52;100.00;103726.94;6224295;28;20046;-77
2023/02/08 05:02:09;;;;;;;21.65;8.23;;;;;;;-3.46;100.00;103730.69;6202450;28;20082;-77
2023/02/08 05:05:10;;;;;;;22.65;8.43;;;;;;;-3.61;100.00;103737.63;6202334;28;20050;-76
2023/02/08 05:08:13;;;;;;;24.98;10.07;;;;;;;-3.75;100.00;103724.03;6207683;28;20056;-77
2023/02/08 05:11:19;;;;;;;27.23;8.68;;;;;;;-3.71;100.00;103731.09;6236439;28;20053;-76
2023/02/08 05:14:21;;;;;;;15.52;7.32;;;;;;;-3.61;100.00;103742.75;6234341;28;20049;-76
2023/02/08 05:17:22;;;;;;;18.08;8.00;;;;;;;-3.59;100.00;103729.19;6240439;28;20074;-77
2023/02/08 05:20:23;;;;;;;18.60;7.82;;;;;;;-3.59;100.00;103729.19;6250705;28;20061;-76
2023/02/08 05:23:27;;;;;;;25.77;7.93;;;;;;;-3.55;100.00;103724.19;6246933;28;20045;-77
2023/02/08 05:26:28;;;;;;;17.30;8.35;;;;;;;-3.62;100.00;103723.00;6226388;28;20429;-76
2023/02/08 05:29:29;;;;;;;20.85;8.43;;;;;;;-3.69;100.00;103714.06;6226912;28;20052;-77
2023/02/08 05:32:31;;;;;;;27.00;10.18;;;;;;;-3.67;100.00;103715.06;6227567;28;20046;-76
2023/02/08 05:35:33;;;;;;;20.45;8.23;;;;;;;-3.61;100.00;103704.19;6225867;28;20077;-77
2023/02/08 05:38:35;;;;;;;37.38;9.75;;;;;;;-3.61;100.00;103704.19;6228477;28;20057;-76
2023/02/08 05:41:37;;;;;;;27.85;8.70;;;;;;;-3.60;100.00;103703.38;6225883;28;20046;-76
2023/02/08 05:44:39;;;;;;;26.95;9.25;;;;;;;-3.63;100.00;103706.69;6226129;28;20056;-76
2023/02/08 05:47:41;;;;;;;18.23;7.43;;;;;;;-3.66;100.00;103703.97;6225807;28;20057;-77
2023/02/08 05:50:43;;;;;;;24.50;9.52;;;;;;;-3.75;100.00;103707.72;6214742;28;20049;-77
2023/02/08 05:53:45;;;;;;;19.23;7.13;;;;;;;-3.72;100.00;103707.91;6211469;28;20341;-77
2023/02/08 05:56:47;;;;;;;25.52;9.50;;;;;;;-3.73;100.00;103704.41;6225544;28;20054;-77
2023/02/08 05:59:48;;;;;;;16.95;8.52;;;;;;;-3.75;100.00;103710.31;6225685;28;20058;-77
2023/02/08 06:02:50;;;;;;;22.27;9.23;;;;;;;-3.74;100.00;103712.94;6234386;28;20056;-77
2023/02/08 06:05:51;;;;;;;32.40;9.95;;;;;;;-3.82;100.00;103715.09;6231926;28;20042;-77
2023/02/08 06:08:54;;;;;;;19.77;8.98;;;;;;;-3.91;100.00;103714.59;6230367;28;20558;-78
2023/02/08 06:11:55;;;;;;;22.95;7.95;;;;;;;-3.85;100.00;103714.06;6230654;28;20049;-77
2023/02/08 06:14:57;;;;;;;26.85;10.20;;;;;;;-3.82;100.00;103712.53;6230630;28;20065;-77
2023/02/08 06:17:58;;;;;;;30.63;11.23;;;;;;;-3.79;100.00;103704.09;6230489;28;20056;-77
2023/02/08 06:20:59;;;;;;;18.67;9.18;;;;;;;-3.74;100.00;103717.19;6230383;28;20054;-77
2023/02/08 06:24:05;;;;;;;31.33;9.80;;;;;;;-3.73;100.00;103711.25;6230452;28;20056;-77
2023/02/08 06:27:06;;;;;;;29.98;12.32;;;;;;;-3.76;100.00;103719.69;6207439;28;20455;-77
2023/02/08 06:30:11;;;;;;;22.60;10.75;;;;;;;-3.76;100.00;103717.13;6205804;28;20437;-77
2023/02/08 06:33:13;;;;;;;43.17;11.95;;;;;;;-3.70;100.00;103726.84;6205849;28;20058;-77
2023/02/08 06:36:14;;;;;;;26.42;10.23;;;;;;;-3.66;100.00;103724.53;6205785;28;20057;-77
2023/02/08 06:39:17;;;;;;;37.35;13.25;;;;;;;-3.69;100.00;103718.31;6205561;28;20050;-77
2023/02/08 06:42:18;;;;;;;28.48;10.73;;;;;;;-3.69;100.00;103726.91;6205621;28;20050;-77
2023/02/08 06:45:19;;;;;;;35.40;12.00;;;;;;;-3.69;100.00;103732.06;6205727;28;20046;-77
2023/02/08 06:48:21;;;;;;;44.17;12.68;;;;;;;-3.67;100.00;103734.72;6205352;28;20357;-77
2023/02/08 06:51:22;;;;;;;39.20;13.30;;;;;;;-3.69;100.00;103734.63;6205586;28;20051;-77
2023/02/08 06:54:25;;;;;;;30.15;12.27;;;;;;;-3.71;100.00;103743.94;6212863;28;20056;-77
2023/02/08 06:57:26;;;;;;;25.33;11.50;;;;;;;-3.72;100.00;103739.63;6229471;28;20472;-77
2023/02/08 07:00:28;;;;;;;27.58;10.32;;;;;;;-3.72;100.00;103741.31;6229312;28;20051;-77
2023/02/08 07:03:29;;;;;;;29.58;10.60;;;;;;;-3.70;100.00;103747.41;6229729;28;20050;-77
2023/02/08 07:06:30;;;;;;;28.02;10.43;;;;;;;-3.69;100.00;103741.44;6229278;28;20068;-77
2023/02/08 07:09:34;;;;;;;29.17;12.15;;;;;;;-3.78;100.00;103743.53;6229367;28;20049;-77
2023/02/08 07:12:37;;;;;;;25.92;10.10;;;;;;;-3.79;100.00;103752.03;6228720;28;20057;-78
2023/02/08 07:15:38;;;;;;;27.65;12.02;;;;;;;-3.77;100.00;103750.44;6229346;28;20354;-78
2023/02/08 07:18:39;;;;;;;35.53;12.52;;;;;;;-3.79;100.00;103742.66;6228886;28;20442;-77
2023/02/08 07:21:41;;;;;;;31.63;12.68;;;;;;;-3.82;100.00;103743.34;6229391;28;20576;-77
2023/02/08 07:24:43;;;;;;;28.35;11.80;;;;;;;-3.88;100.00;103744.72;6222289;28;20369;-77
2023/02/08 07:27:45;;;;;;;30.00;13.23;;;;;;;-3.77;100.00;103740.16;6204632;28;20050;-77
2023/02/08 07:30:46;;;;;;;26.63;9.85;;;;;;;-3.71;100.00;103730.22;6226089;28;20046;-77
2023/02/08 07:33:48;;;;;;;30.88;11.48;;;;;;;-3.65;100.00;103731.41;6215379;28;20075;-77
2023/02/08 07:36:50;;;;;;;31.23;11.10;;;;;;;-3.61;100.00;103724.75;6211625;28;20200;-77
2023/02/08 07:39:52;;;;;;;39.17;12.70;;;;;;;-3.58;100.00;103724.94;6240352;28;20050;-77
2023/02/08 07:42:54;;;;;;;30.52;11.85;;;;;;;-3.55;100.00;103719.94;6229418;28;20452;-77
2023/02/08 07:45:55;;;;;;;22.70;9.88;;;;;;;-3.49;100.00;103720.28;6227120;28;20050;-78
2023/02/08 07:48:56;;;;;;;26.83;10.65;;;;;;;-3.46;100.00;103722.09;6233042;28;20053;-78
2023/02/08 07:51:58;;;;;;;36.72;11.57;;;;;;;-3.43;100.00;103719.72;6205237;28;20050;-78
2023/02/08 07:55:01;;;;;;;33.17;12.57;;;;;;;-3.39;100.00;103713.94;6226836;28;20038;-78
2023/02/08 07:58:02;;;;;;;28.83;11.30;;;;;;;-3.36;100.00;103712.41;6228151;28;20054;-79
2023/02/08 08:01:04;;;;;;;29.35;10.50;;;;;;;-3.29;100.00;103711.00;6225161;28;20341;-78
2023/02/08 08:04:06;;;;;;;28.63;10.77;;;;;;;-3.25;100.00;103717.22;6220296;28;20046;-78
2023/02/08 08:07:07;;;;;;;24.33;11.07;;;;;;;-3.21;100.00;103714.00;6227249;28;20332;-77
2023/02/08 08:10:10;;;;;;;29.27;10.63;;;;;;;-3.16;100.00;103713.41;6224015;28;20046;-77
2023/02/08 08:13:11;;;;;;;26.98;9.68;;;;;;;-3.11;100.00;103716.22;6227431;28;20054;-78
2023/02/08 08:16:13;;;;;;;26.13;10.73;;;;;;;-3.13;100.00;103718.72;6227869;28;20045;-77
2023/02/08 08:19:14;;;;;;;26.60;9.65;;;;;;;-3.11;100.00;103717.09;6227348;28;20057;-77
2023/02/08 08:22:16;;;;;;;28.58;10.82;;;;;;;-3.10;100.00;103715.41;6227796;28;20459;-77
2023/02/08 08:25:19;;;;;;;22.95;9.77;;;;;;;-3.08;100.00;103719.84;6224970;28;20322;-77
2023/02/08 08:28:20;;;;;;;27.52;10.55;;;;;;;-3.04;100.00;103720.88;6227333;28;20052;-78
2023/02/08 08:31:22;;;;;;;31.50;12.13;;;;;;;-2.97;100.00;103701.47;6227209;28;20050;-78
2023/02/08 08:34:28;;;;;;;29.77;11.05;;;;;;;-2.88;100.00;103700.25;6225459;28;20054;-79
2023/02/08 08:37:30;;;;;;;31.50;11.13;;;;;;;-2.83;100.00;103693.63;6220801;28;20046;-77
2023/02/08 08:40:32;;;;;;;30.25;10.98;;;;;;;-2.76;100.00;103696.53;6226585;28;20356;-79
2023/02/08 08:43:34;;;;;;;29.05;12.55;;;;;;;-2.74;100.00;103689.75;6219038;28;20068;-78
2023/02/08 08:46:35;;;;;;;25.42;10.98;;;;;;;-2.70;100.00;103686.50;6226946;28;20042;-78
2023/02/08 08:49:36;;;;;;;26.52;10.75;;;;;;;-2.62;100.00;103695.50;6206191;28;20054;-78
2023/02/08 08:52:39;;;;;;;26.73;10.02;;;;;;;-2.61;100.00;103690.41;6204130;28;20058;-78
2023/02/08 08:55:41;;;;;;;39.10;11.32;;;;;;;-2.61;100.00;103689.53;6226349;28;20348;-78
2023/02/08 08:58:43;;;;;;;23.92;11.00;;;;;;;-2.57;100.00;103694.03;6225643;28;20057;-79
2023/02/08 09:01:44;;;;;;;27.75;11.25;;;;;;;-2.53;100.00;103689.91;6226689;28;20140;-79
2023/02/08 09:04:45;;;;;;;33.65;12.02;;;;;;;-2.50;100.00;103696.06;6226122;28;20046;-78
2023/02/08 09:07:47;;;;;;;23.65;9.50;;;;;;;-2.50;100.00;103685.78;6222452;28;20068;-78
2023/02/08 09:10:49;;;;;;;33.38;9.45;;;;;;;-2.43;100.00;103686.97;6224436;28;20057;-77
2023/02/08 09:13:54;;;;;;;25.77;10.07;;;;;;;-2.41;100.00;103687.91;6226957;28;20046;-79
2023/02/08 09:16:55;;;;;;;25.95;11.02;;;;;;;-2.35;100.00;103691.66;6230331;28;20088;-78
2023/02/08 09:19:57;;;;;;;19.48;9.30;;;;;;;-2.27;100.00;103696.28;6226123;28;20049;-79
2023/02/08 09:22:58;;;;;;;24.52;8.88;;;;;;;-2.17;100.00;103695.94;6226568;28;20053;-78
2023/02/08 09:26:03;;;;;;;29.00;9.77;;;;;;;-2.10;100.00;103700.53;6225141;28;20045;-79
2023/02/08 09:29:05;;;;;;;24.05;9.77;;;;;;;-2.05;100.00;103704.19;6225729;28;20467;-78
2023/02/08 09:32:07;;;;;;;22.85;9.45;;;;;;;-1.98;100.00;103706.25;6226147;28;20049;-78
2023/02/08 09:35:08;;;;;;;16.45;7.60;;;;;;;-1.93;100.00;103704.78;6225860;28;20344;-79
2023/02/08 09:38:10;;;;;;;30.95;10.07;;;;;;;-1.82;100.00;103706.16;6226065;28;20050;-79
2023/02/08 09:41:29;;;;;;;22.20;7.15;;;;;;;-1.74;100.00;103706.50;6226092;28;20049;-77
2023/02/08 09:44:36;;;;;;;23.52;9.13;;;;;;;-1.64;100.00;103703.50;6226137;28;20057;-78
2023/02/08 09:47:44;;;;;;;34.53;9.05;;;;;;;-1.60;100.00;103696.78;6226071;28;20129;-78
2023/02/08 09:50:50;;;;;;;18.88;8.07;;;;;;;-1.55;100.00;103698.75;6225857;28;20042;-78
2023/02/08 09:53:55;;;;;;;19.70;7.47;;;;;;;-1.50;100.00;103688.63;6226525;28;20046;-80
2023/02/08 09:57:00;;;;;;;15.95;7.65;;;;;;;-1.42;100.00;103702.75;6225812;28;20053;-81
2023/02/08 10:00:06;;;;;;;17.08;8.15;;;;;;;-1.32;100.00;103694.63;6226073;28;20053;-78
2023/02/08 10:03:18;;;;;;;24.40;9.02;;;;;;;-1.18;100.00;103704.63;6225815;28;20053;-79
2023/02/08 10:06:20;;;;;;;24.40;7.65;;;;;;;-1.18;100.00;103705.53;6226188;28;20042;-82
2023/02/08 10:09:26;;;;;;;23.23;7.80;;;;;;;-1.14;100.00;103689.34;6225780;28;20050;-78
2023/02/08 10:12:43;;;;;;;21.08;8.32;;;;;;;-1.05;100.00;103691.44;6201702;28;20054;-78
2023/02/08 10:15:51;;;;;;;16.98;7.82;;;;;;;-0.90;100.00;103694.66;6201329;28;20334;-79
2023/02/08 10:19:03;;;;;;;17.92;6.80;;;;;;;-0.77;100.00;103689.19;6201459;28;20047;-79
2023/02/08 10:22:21;;;;;;;15.30;6.57;;;;;;;-0.69;100.00;103680.88;6201076;28;20061;-78
2023/02/08 10:25:42;;;;;;;14.95;7.43;;;;;;;-0.54;100.00;103676.34;6202297;28;20077;-80
2023/02/08 10:29:04;;;;;;;23.48;7.72;;;;;;;-0.44;100.00;103675.88;6201263;28;20062;-82
2023/02/08 10:32:22;;;;;;;17.20;5.88;;;;;;;-0.40;100.00;103669.13;6201118;28;20058;-80
2023/02/08 10:35:27;;;;;;;14.43;5.65;;;;;;;-0.37;100.00;103675.25;6201461;28;20049;-81
2023/02/08 10:38:32;;;;;;;17.30;7.65;;;;;;;-0.27;100.00;103668.78;6200876;28;20047;-81
2023/02/08 10:41:36;;;;;;;14.20;5.85;;;;;;;-0.11;100.00;103662.47;6201281;28;20058;-81
2023/02/08 10:44:54;;;;;;;12.10;5.00;;;;;;;0.01;100.00;103664.66;6201379;28;20046;-84
2023/02/08 10:48:00;;;;;;;10.97;5.13;;;;;;;0.12;100.00;103671.09;6214351;28;20738;-81
2023/02/08 10:51:02;;;;;;;13.15;5.65;;;;;;;0.21;100.00;103668.84;6230186;28;20046;-81
2023/02/08 10:54:04;;;;;;;10.45;4.63;;;;;;;0.34;98.90;103670.16;6229426;28;20046;-82
2023/02/08 10:57:14;;;;;;;8.63;4.28;;;;;;;0.43;96.52;103673.97;6229650;28;20050;-80
2023/02/08 11:00:21;;;;;;;8.38;4.40;;;;;;;0.53;95.06;103676.88;6229501;28;20064;-80
2023/02/08 11:03:25;;;;;;;12.13;4.43;;;;;;;0.66;92.07;103666.13;6230220;28;20048;-79
2023/02/08 11:06:27;;;;;;;10.65;3.92;;;;;;;0.78;85.82;103668.28;6229357;28;20091;-83
2023/02/08 11:09:31;;;;;;;11.27;4.20;;;;;;;0.93;84.02;103661.91;6229613;28;20069;-84
2023/02/08 11:12:32;;;;;;;5.90;3.47;;;;;;;0.99;85.52;103661.22;6219907;28;20360;-81
2023/02/08 11:15:39;;;;;;;10.77;3.83;;;;;;;1.10;83.43;103656.41;6205104;28;20047;-79
2023/02/08 11:18:47;;;;;;;9.23;4.03;;;;;;;1.35;80.79;103658.06;6204773;28;20117;-80
2023/02/08 11:21:51;;;;;;;10.18;4.43;;;;;;;1.46;81.34;103660.16;6205212;28;20061;-79
2023/02/08 11:24:57;;;;;;;13.48;5.38;;;;;;;1.65;76.79;103645.19;6205758;28;20046;-80
2023/02/08 11:27:59;;;;;;;9.23;4.00;;;;;;;1.73;78.92;103639.41;6222028;28;20092;-78
2023/02/08 11:31:16;;;;;;;9.25;5.05;;;;;;;1.90;79.05;103637.28;6229266;28;20107;-78
2023/02/08 11:34:24;;;;;;;10.82;3.92;;;;;;;2.10;77.11;103639.59;6229130;28;20057;-79
2023/02/08 11:37:27;;;;;;;8.32;3.92;;;;;;;2.20;73.82;103631.22;6228438;28;20050;-79
2023/02/08 11:40:34;;;;;;;8.93;3.97;;;;;;;2.28;71.33;103635.78;6228862;28;20057;-79
2023/02/08 11:43:35;;;;;;;4.88;2.80;;;;;;;2.37;71.17;103624.78;6228569;28;20054;-78
2023/02/08 11:46:40;;;;;;;10.77;3.95;;;;;;;2.55;69.40;103627.00;6229075;28;20046;-78
2023/02/08 11:49:44;;;;;;;6.68;2.58;;;;;;;2.74;68.45;103618.84;6203927;28;20070;-78
2023/02/08 11:52:54;;;;;;;8.82;3.42;;;;;;;2.80;69.58;103616.38;6204299;28;20050;-79
2023/02/08 11:56:07;;;;;;;7.15;3.35;;;;;;;2.92;68.55;103617.53;6204541;28;20053;-79
2023/02/08 11:59:19;;;;;;;10.25;4.50;;;;;;;3.01;70.27;103616.03;6202705;28;20046;-81
2023/02/08 12:02:36;;;;;;;8.93;3.40;;;;;;;3.11;70.91;103611.94;6204020;28;20065;-78
2023/02/08 12:05:44;;;;;;;9.23;3.72;;;;;;;3.22;69.58;103604.38;6204094;28;20046;-80
2023/02/08 12:08:53;;;;;;;12.37;4.03;;;;;;;3.38;71.44;103603.03;6203669;28;20065;-81
2023/02/08 12:12:01;;;;;;;9.98;3.92;;;;;;;3.57;70.23;103602.59;6224306;28;20060;-80
2023/02/08 12:15:14;;;;;;;13.15;4.72;;;;;;;3.65;69.68;103598.44;6227882;28;20045;-79
2023/02/08 12:18:30;;;;;;;12.20;4.35;;;;;;;3.75;68.07;103597.78;6227626;28;20057;-79
2023/02/08 12:21:38;;;;;;;11.52;4.07;;;;;;;3.84;65.58;103588.41;6228159;28;20054;-79
2023/02/08 12:24:47;;;;;;;13.23;4.65;;;;;;;3.91;60.54;103591.19;6227765;28;20133;-80
2023/02/08 12:27:54;;;;;;;11.40;4.05;;;;;;;4.04;62.76;103590.59;6204220;28;20054;-80
2023/02/08 12:31:04;;;;;;;9.27;4.50;;;;;;;4.06;61.50;103578.47;6203501;28;20050;-75
2023/02/08 12:34:14;;;;;;;11.82;5.57;;;;;;;4.07;62.08;103574.13;6203195;28;20080;-75
2023/02/08 12:40:56;;;;;;;13.45;5.20;;;;;;;4.20;63.81;103570.91;6230390;28;20058;-74
2023/02/08 12:44:08;;;;;;;13.00;5.00;;;;;;;4.22;64.52;103557.91;6235133;28;20124;-73
2023/02/08 12:47:30;;;;;;;11.15;4.65;;;;;;;4.29;64.38;103555.47;6240024;28;20045;-73
2023/02/08 12:50:40;;;;;;;13.95;5.45;;;;;;;4.43;63.01;103550.50;6237945;28;20049;-73
2023/02/08 12:53:45;;;;;;;15.57;5.28;;;;;;;4.45;66.20;103550.53;6226368;28;20429;-73
2023/02/08 12:56:49;;;;;;;17.30;5.15;;;;;;;4.50;62.74;103544.56;6225882;28;20057;-74
2023/02/08 12:59:57;;;;;;;15.57;5.75;;;;;;;4.48;64.25;103537.56;6226963;28;20045;-73
2023/02/08 13:03:05;;;;;;;12.13;5.20;;;;;;;4.57;66.36;103542.94;6226382;28;20057;-73
2023/02/08 13:06:15;;;;;;;15.70;6.10;;;;;;;4.53;68.07;103534.19;6226988;28;20058;-73
2023/02/08 13:09:27;;;;;;;12.18;5.07;;;;;;;4.57;65.76;103520.34;6225874;28;20061;-75
2023/02/08 13:12:32;;;;;;;13.93;5.63;;;;;;;4.60;68.22;103529.09;6226759;28;20049;-74
2023/02/08 13:15:39;;;;;;;15.77;6.63;;;;;;;4.75;69.09;103513.69;6226381;28;20053;-74
2023/02/08 13:18:46;;;;;;;18.75;6.95;;;;;;;4.83;69.56;103505.16;6226167;28;20052;-74
2023/02/08 13:21:51;;;;;;;15.73;6.85;;;;;;;4.86;70.25;103503.41;6226416;28;20064;-73
2023/02/08 13:24:54;;;;;;;15.63;6.75;;;;;;;4.84;70.09;103499.06;6222989;28;20050;-74
2023/02/08 13:27:55;;;;;;;19.08;5.85;;;;;;;4.90;69.79;103500.00;6201769;28;20057;-74
2023/02/08 13:31:02;;;;;;;15.40;5.90;;;;;;;4.93;70.14;103493.13;6201807;28;20046;-74
2023/02/08 13:34:08;;;;;;;15.23;5.55;;;;;;;4.99;69.79;103484.50;6201886;28;20050;-75
2023/02/08 13:37:21;;;;;;;14.15;5.80;;;;;;;4.91;68.12;103476.59;6201694;28;20075;-75
2023/02/08 13:40:26;;;;;;;17.65;6.30;;;;;;;5.12;68.41;103470.78;6201567;28;20050;-75
2023/02/08 13:43:36;;;;;;;12.52;5.35;;;;;;;5.35;66.99;103456.31;6201772;28;20054;-74
2023/02/08 13:46:44;;;;;;;14.48;5.78;;;;;;;5.64;66.04;103458.41;6211935;28;20053;-76
2023/02/08 13:49:55;;;;;;;13.70;4.75;;;;;;;5.64;61.89;103452.31;6208377;28;20463;-76
2023/02/08 13:52:58;;;;;;;11.35;5.35;;;;;;;5.65;63.35;103452.31;6218776;28;20050;-75
2023/02/08 13:56:00;;;;;;;17.25;5.07;;;;;;;5.66;62.49;103441.00;6221968;28;20057;-75
2023/02/08 13:59:02;;;;;;;11.07;5.50;;;;;;;5.58;61.91;103440.91;6225475;28;20049;-75
2023/02/08 14:02:25;;;;;;;13.40;5.10;;;;;;;5.71;60.35;103428.88;6239587;28;20053;-75
2023/02/08 14:05:43;;;;;;;13.23;4.35;;;;;;;5.50;62.56;103426.94;6225642;28;20041;-75
2023/02/08 14:08:54;;;;;;;12.65;4.60;;;;;;;5.40;59.52;103426.81;6224957;28;20053;-75
2023/02/08 14:12:01;;;;;;;12.13;4.35;;;;;;;5.42;59.86;103430.31;6225872;28;20076;-75
2023/02/08 14:15:32;;;;;;;12.75;5.40;;;;;;;5.28;56.19;103425.81;6225198;28;20056;-75